Time;durP1;ratioP1;P1;durP2;ratioP2;P2;SDS_P1;SDS_P2;PMS_P1;PMS_P2;Temp;Humidity;BMP_temperature;BMP_pressure;BME280_temperature;BME280_humidity;BME280_pressure;Samples;Min_cycle;Max_cycle;Signal;HPM_P1;HPM_P2
2022/01/07 00:00:28;;;;;;;;;;;-1.80;99.90;;;;;;5085656;28;19951;-70
2022/01/07 00:02:56;;;;;;;;;;;-1.80;99.90;;;;;;5075142;28;19924;-70
2022/01/07 00:05:29;;;;;;;;;;;-1.70;99.90;;;;;;5079119;28;20471;-71
2022/01/07 00:07:55;;;;;;;;;;;-1.70;99.90;;;;;;5084599;28;20018;-70
2022/01/07 00:10:22;;;;;;;;;;;-1.70;99.90;;;;;;5080880;28;20394;-72
2022/01/07 00:12:50;;;;;;;;;;;-1.70;99.90;;;;;;5086665;28;19928;-71
2022/01/07 00:15:18;;;;;;;;;;;-1.70;99.90;;;;;;5082563;28;19929;-70
2022/01/07 00:17:45;;;;;;;;;;;-1.70;99.90;;;;;;5085374;28;20023;-70
2022/01/07 00:20:12;;;;;;;;;;;-1.80;99.90;;;;;;5080804;28;19928;-69
2022/01/07 00:22:40;;;;;;;;;;;-1.80;99.90;;;;;;5077236;28;20026;-71
2022/01/07 00:25:07;;;;;;;;;;;-1.90;99.90;;;;;;5088336;28;19924;-70
2022/01/07 00:27:34;;;;;;;;;;;-1.90;99.90;;;;;;5081037;28;20019;-71
2022/01/07 00:30:01;;;;;;;;;;;-1.90;99.90;;;;;;5079668;28;19999;-70
2022/01/07 00:32:27;;;;;;;;;;;-1.80;99.90;;;;;;5085366;28;20358;-70
2022/01/07 00:34:54;;;;;;;;;;;-1.80;99.90;;;;;;5081764;28;19924;-71
2022/01/07 00:37:21;;;;;;;;;;;-1.80;99.90;;;;;;5076868;28;20422;-70
2022/01/07 00:39:49;;;;;;;;;;;-1.70;99.90;;;;;;5085425;28;20006;-70
2022/01/07 00:42:16;;;;;;;;;;;-1.70;99.90;;;;;;5076923;28;19933;-69
2022/01/07 00:44:42;;;;;;;;;;;-1.70;99.90;;;;;;5079688;28;19928;-70
2022/01/07 00:47:09;;;;;;;;;;;-1.60;99.90;;;;;;5071944;28;19938;-70
2022/01/07 00:49:37;;;;;;;;;;;-1.70;99.90;;;;;;5073240;28;20193;-70
2022/01/07 00:52:05;;;;;;;;;;;-1.80;99.90;;;;;;5096377;28;19981;-70
2022/01/07 00:54:32;;;;;;;;;;;-1.90;99.90;;;;;;5082579;28;20378;-71
2022/01/07 00:56:58;;;;;;;;;;;-2.00;99.90;;;;;;5087041;28;20406;-70
2022/01/07 00:59:25;;;;;;;;;;;-2.10;99.90;;;;;;5087370;28;19933;-71
2022/01/07 01:01:52;;;;;;;;;;;-2.00;99.90;;;;;;5075135;28;19928;-71
2022/01/07 01:04:39;;;;;;;;;;;-1.90;99.90;;;;;;5076423;28;19934;-71
2022/01/07 01:07:05;;;;;;;;;;;-1.80;99.90;;;;;;5072319;28;20011;-70
2022/01/07 01:09:32;;;;;;;;;;;-1.90;99.90;;;;;;5086365;28;19943;-71
2022/01/07 01:12:00;;;;;;;;;;;-1.90;99.90;;;;;;5080559;28;19928;-71
2022/01/07 01:14:29;;;;;;;;;;;-2.00;99.90;;;;;;5079147;28;19932;-71
2022/01/07 01:16:56;;;;;;;;;;;-2.00;99.90;;;;;;5088280;28;20016;-72
2022/01/07 01:19:23;;;;;;;;;;;-1.90;99.90;;;;;;5080539;28;19931;-71
2022/01/07 01:21:50;;;;;;;;;;;-1.90;99.90;;;;;;5099029;28;19971;-71
2022/01/07 01:24:16;;;;;;;;;;;-1.90;99.90;;;;;;5073902;28;19947;-71
2022/01/07 01:26:51;;;;;;;;;;;-1.90;99.90;;;;;;5074594;28;19931;-71
2022/01/07 01:29:20;;;;;;;;;;;-1.90;99.90;;;;;;5067675;28;20366;-71
2022/01/07 01:31:47;;;;;;;;;;;-1.90;99.90;;;;;;5082957;28;19932;-71
2022/01/07 01:34:13;;;;;;;;;;;-1.90;99.90;;;;;;5076517;28;19930;-71
2022/01/07 01:36:40;;;;;;;;;;;-1.80;99.90;;;;;;5082887;28;20007;-70
2022/01/07 01:39:08;;;;;;;;;;;-1.80;99.90;;;;;;5082064;28;19924;-70
2022/01/07 01:41:34;;;;;;;;;;;-1.80;99.90;;;;;;5084779;28;19966;-70
2022/01/07 01:44:01;;;;;;;;;;;-1.80;99.90;;;;;;5080886;28;20480;-70
2022/01/07 01:46:28;;;;;;;;;;;-1.80;99.90;;;;;;5074129;28;20031;-71
2022/01/07 01:48:54;;;;;;;;;;;-1.70;99.90;;;;;;5085338;28;19931;-71
2022/01/07 01:51:21;;;;;;;;;;;-1.70;99.90;;;;;;5077353;28;19930;-71
2022/01/07 01:53:48;;;;;;;;;;;-1.70;99.90;;;;;;5083788;28;19964;-71
2022/01/07 01:56:14;;;;;;;;;;;-1.80;99.90;;;;;;5089547;28;19930;-71
2022/01/07 01:58:41;;;;;;;;;;;-1.80;99.90;;;;;;5082102;28;19982;-70
2022/01/07 02:01:08;;;;;;;;;;;-1.80;99.90;;;;;;5073900;28;19928;-70
2022/01/07 02:03:35;;;;;;;;;;;-1.80;99.90;;;;;;5073267;28;19978;-70
2022/01/07 02:06:02;;;;;;;;;;;-1.80;99.90;;;;;;5082016;28;19931;-70
2022/01/07 02:08:29;;;;;;;;;;;-1.80;99.90;;;;;;5088151;28;19932;-70
2022/01/07 02:10:59;;;;;;;;;;;-1.80;99.90;;;;;;5078712;28;20031;-70
2022/01/07 02:13:25;;;;;;;;;;;-1.90;99.90;;;;;;5080533;28;20779;-70
2022/01/07 02:15:52;;;;;;;;;;;-1.90;99.90;;;;;;5085483;28;19930;-70
2022/01/07 02:18:19;;;;;;;;;;;-1.90;99.90;;;;;;5081978;28;19924;-70
2022/01/07 02:20:47;;;;;;;;;;;-1.90;99.90;;;;;;5080071;28;20874;-70
2022/01/07 02:23:14;;;;;;;;;;;-1.90;99.90;;;;;;5073192;28;20393;-70
2022/01/07 02:25:41;;;;;;;;;;;-1.90;99.90;;;;;;5074880;28;20562;-70
2022/01/07 02:28:08;;;;;;;;;;;-1.90;99.90;;;;;;5083156;28;19935;-71
2022/01/07 02:30:35;;;;;;;;;;;-1.90;99.90;;;;;;5071480;28;20034;-70
2022/01/07 02:33:03;;;;;;;;;;;-2.00;99.90;;;;;;5076595;28;19935;-70
2022/01/07 02:35:31;;;;;;;;;;;-2.00;99.90;;;;;;5078409;28;20011;-70
2022/01/07 02:37:58;;;;;;;;;;;-2.00;99.90;;;;;;5075588;28;19928;-70
2022/01/07 02:40:25;;;;;;;;;;;-2.00;99.90;;;;;;5084133;28;19924;-70
2022/01/07 02:42:52;;;;;;;;;;;-1.90;99.90;;;;;;5085493;28;19930;-70
2022/01/07 02:45:19;;;;;;;;;;;-1.80;99.90;;;;;;5076274;28;19932;-70
2022/01/07 02:48:04;;;;;;;;;;;-1.80;99.90;;;;;;5082626;28;19925;-70
2022/01/07 02:50:35;;;;;;;;;;;-1.80;99.90;;;;;;5073790;28;20375;-70
2022/01/07 02:53:03;;;;;;;;;;;-1.80;99.90;;;;;;5084096;28;20507;-70
2022/01/07 02:55:30;;;;;;;;;;;-1.80;99.90;;;;;;5086845;28;19920;-70
2022/01/07 02:57:57;;;;;;;;;;;-1.80;99.90;;;;;;5078658;28;20337;-70
2022/01/07 03:00:25;;;;;;;;;;;-1.80;99.90;;;;;;5073305;28;20023;-70
2022/01/07 03:02:52;;;;;;;;;;;-1.70;99.90;;;;;;5071363;28;20019;-70
2022/01/07 03:05:19;;;;;;;;;;;-1.70;99.90;;;;;;5075618;28;19928;-71
2022/01/07 03:07:47;;;;;;;;;;;-1.70;99.90;;;;;;5076166;28;19921;-71
2022/01/07 03:10:16;;;;;;;;;;;-1.70;99.90;;;;;;5083950;28;20025;-70
2022/01/07 03:12:43;;;;;;;;;;;-1.70;99.90;;;;;;5078431;28;19994;-70
2022/01/07 03:15:11;;;;;;;;;;;-1.70;99.90;;;;;;5083636;28;19928;-70
2022/01/07 03:17:39;;;;;;;;;;;-1.70;99.90;;;;;;5075709;28;19920;-70
2022/01/07 03:20:14;;;;;;;;;;;-1.70;99.90;;;;;;5079724;28;19920;-70
2022/01/07 03:22:41;;;;;;;;;;;-1.70;99.90;;;;;;5072016;28;19920;-69
2022/01/07 03:25:08;;;;;;;;;;;-1.60;99.90;;;;;;5077212;28;19955;-70
2022/01/07 03:27:35;;;;;;;;;;;-1.70;99.90;;;;;;5070023;28;20036;-71
2022/01/07 03:30:03;;;;;;;;;;;-1.70;99.90;;;;;;5077408;28;19920;-70
2022/01/07 03:32:29;;;;;;;;;;;-1.70;99.90;;;;;;5075169;28;19935;-70
2022/01/07 03:34:56;;;;;;;;;;;-1.70;99.90;;;;;;5074472;28;19924;-70
2022/01/07 03:37:23;;;;;;;;;;;-1.70;99.90;;;;;;5084504;28;22372;-70
2022/01/07 03:39:50;;;;;;;;;;;-1.70;99.90;;;;;;5078422;28;20019;-70
2022/01/07 03:42:16;;;;;;;;;;;-1.60;99.90;;;;;;5077285;28;19921;-71
2022/01/07 03:44:43;;;;;;;;;;;-1.60;99.90;;;;;;5077433;28;20809;-71
2022/01/07 03:47:09;;;;;;;;;;;-1.60;99.90;;;;;;5070248;28;19920;-70
2022/01/07 03:49:36;;;;;;;;;;;-1.50;99.90;;;;;;5072665;28;19927;-71
2022/01/07 03:52:04;;;;;;;;;;;-1.50;99.90;;;;;;5079433;28;19963;-71
2022/01/07 03:54:30;;;;;;;;;;;-1.40;99.90;;;;;;5081841;28;19920;-71
2022/01/07 03:56:57;;;;;;;;;;;-1.40;99.90;;;;;;5081511;28;20023;-71
2022/01/07 03:59:24;;;;;;;;;;;-1.30;99.90;;;;;;5085515;28;19949;-70
2022/01/07 04:01:50;;;;;;;;;;;-1.30;99.90;;;;;;5082286;28;19920;-70
2022/01/07 04:04:17;;;;;;;;;;;-1.30;99.90;;;;;;5073874;28;19934;-70
2022/01/07 04:06:44;;;;;;;;;;;-1.30;99.90;;;;;;5077766;28;19923;-70
2022/01/07 04:09:10;;;;;;;;;;;-1.30;99.90;;;;;;5080258;28;20293;-71
2022/01/07 04:11:37;;;;;;;;;;;-1.30;99.90;;;;;;5070697;28;19920;-71
2022/01/07 04:14:04;;;;;;;;;;;-1.30;99.90;;;;;;5077676;28;19920;-70
2022/01/07 04:16:30;;;;;;;;;;;-1.30;99.90;;;;;;5072951;28;19942;-70
2022/01/07 04:18:57;;;;;;;;;;;-1.30;99.90;;;;;;5083936;28;20309;-70
2022/01/07 04:21:24;;;;;;;;;;;-1.30;99.90;;;;;;5075334;28;20006;-71
2022/01/07 04:23:50;;;;;;;;;;;-1.30;99.90;;;;;;5075030;28;20405;-70
2022/01/07 04:26:17;;;;;;;;;;;-1.40;99.90;;;;;;5077481;28;19921;-71
2022/01/07 04:28:44;;;;;;;;;;;-1.40;99.90;;;;;;5076562;28;19962;-70
2022/01/07 04:31:10;;;;;;;;;;;-1.30;99.90;;;;;;5079332;28;20362;-69
2022/01/07 04:33:37;;;;;;;;;;;-1.20;99.90;;;;;;5071140;28;19927;-69
2022/01/07 04:36:04;;;;;;;;;;;-1.20;99.90;;;;;;5083990;28;19964;-70
2022/01/07 04:38:32;;;;;;;;;;;-1.10;99.90;;;;;;5073093;28;19920;-70
2022/01/07 04:40:58;;;;;;;;;;;-1.10;99.90;;;;;;5075741;28;19939;-70
2022/01/07 04:43:25;;;;;;;;;;;-1.10;99.90;;;;;;5071934;28;19929;-70
2022/01/07 04:45:52;;;;;;;;;;;-1.10;99.90;;;;;;5073300;28;19920;-69
2022/01/07 04:48:18;;;;;;;;;;;-1.10;99.90;;;;;;5077149;28;19970;-70
2022/01/07 04:50:45;;;;;;;;;;;-1.00;99.90;;;;;;5074755;28;20378;-69
2022/01/07 04:53:13;;;;;;;;;;;-1.00;99.90;;;;;;5085091;28;19932;-70
2022/01/07 04:55:39;;;;;;;;;;;-1.00;99.90;;;;;;5077691;28;19939;-69
2022/01/07 04:58:11;;;;;;;;;;;-1.10;99.90;;;;;;5082954;28;20377;-70
2022/01/07 05:00:39;;;;;;;;;;;-1.10;99.90;;;;;;5080159;28;19938;-70
2022/01/07 05:03:06;;;;;;;;;;;-1.10;99.90;;;;;;5076243;28;19962;-69
2022/01/07 05:05:32;;;;;;;;;;;-1.10;99.90;;;;;;5075206;28;19920;-69
2022/01/07 05:08:02;;;;;;;;;;;-1.10;99.90;;;;;;5077059;28;19961;-70
2022/01/07 05:10:29;;;;;;;;;;;-1.00;99.90;;;;;;5087540;28;19930;-70
2022/01/07 05:12:56;;;;;;;;;;;-1.00;99.90;;;;;;5077867;28;19980;-70
2022/01/07 05:15:23;;;;;;;;;;;-1.00;99.90;;;;;;5077844;28;20007;-70
2022/01/07 05:17:50;;;;;;;;;;;-1.00;99.90;;;;;;5079645;28;19934;-69
2022/01/07 05:20:17;;;;;;;;;;;-0.90;99.90;;;;;;5073837;28;20462;-70
2022/01/07 05:22:44;;;;;;;;;;;-0.90;99.90;;;;;;5074735;28;19926;-69
2022/01/07 05:25:11;;;;;;;;;;;-0.90;99.90;;;;;;5072974;28;19921;-70
2022/01/07 05:27:39;;;;;;;;;;;-0.80;99.90;;;;;;5077756;28;19956;-70
2022/01/07 05:30:07;;;;;;;;;;;-0.80;99.90;;;;;;5093733;28;19920;-70
2022/01/07 05:32:34;;;;;;;;;;;-0.80;99.90;;;;;;5080477;28;19920;-70
2022/01/07 05:35:01;;;;;;;;;;;-0.70;99.90;;;;;;5081023;28;19920;-70
2022/01/07 05:37:27;;;;;;;;;;;-0.70;99.90;;;;;;5082513;28;19924;-70
2022/01/07 05:39:56;;;;;;;;;;;-0.70;99.90;;;;;;5073476;28;20010;-70
2022/01/07 05:42:23;;;;;;;;;;;-0.70;99.90;;;;;;5080342;28;20019;-70
2022/01/07 05:44:50;;;;;;;;;;;-0.70;99.90;;;;;;5083435;28;20434;-70
2022/01/07 05:47:17;;;;;;;;;;;-0.60;99.90;;;;;;5084015;28;19927;-70
2022/01/07 05:49:44;;;;;;;;;;;-0.60;99.90;;;;;;5078520;28;19955;-70
2022/01/07 05:52:10;;;;;;;;;;;-0.60;99.90;;;;;;5079147;28;20373;-70
2022/01/07 05:54:37;;;;;;;;;;;-0.60;99.90;;;;;;5081175;28;19920;-70
2022/01/07 05:57:05;;;;;;;;;;;-0.60;99.90;;;;;;5078097;28;20290;-70
2022/01/07 05:59:33;;;;;;;;;;;-0.60;99.90;;;;;;5072752;28;19963;-70
2022/01/07 06:02:00;;;;;;;;;;;-0.50;99.90;;;;;;5077017;28;19943;-71
2022/01/07 06:04:27;;;;;;;;;;;-0.60;99.90;;;;;;5083281;28;19923;-70
2022/01/07 06:06:53;;;;;;;;;;;-0.60;99.90;;;;;;5071604;28;19928;-70
2022/01/07 06:09:21;;;;;;;;;;;-0.60;99.90;;;;;;5065623;28;19924;-70
2022/01/07 06:11:47;;;;;;;;;;;-0.60;99.90;;;;;;5072867;28;19920;-70
2022/01/07 06:14:14;;;;;;;;;;;-0.60;99.90;;;;;;5073473;28;19921;-70
2022/01/07 06:16:44;;;;;;;;;;;-0.60;99.90;;;;;;5045523;28;19920;-70
2022/01/07 06:19:11;;;;;;;;;;;-0.50;99.90;;;;;;5072420;28;20333;-70
2022/01/07 06:21:38;;;;;;;;;;;-0.50;99.90;;;;;;5077040;28;20019;-70
2022/01/07 06:24:04;;;;;;;;;;;-0.50;99.90;;;;;;5082011;28;20023;-70
2022/01/07 06:26:31;;;;;;;;;;;-0.50;99.90;;;;;;5075669;28;19919;-71
2022/01/07 06:28:58;;;;;;;;;;;-0.50;99.90;;;;;;5072319;28;19928;-70
2022/01/07 06:31:24;;;;;;;;;;;-0.50;99.90;;;;;;5072340;28;19920;-70
2022/01/07 06:33:52;;;;;;;;;;;-0.50;99.90;;;;;;5096070;28;19919;-70
2022/01/07 06:36:18;;;;;;;;;;;-0.50;99.90;;;;;;5089081;28;19928;-70
2022/01/07 06:38:45;;;;;;;;;;;-0.50;99.90;;;;;;5077269;28;19924;-70
2022/01/07 06:41:12;;;;;;;;;;;-0.50;99.90;;;;;;5083411;28;20010;-70
2022/01/07 06:43:39;;;;;;;;;;;-0.50;99.90;;;;;;5086619;28;19921;-71
2022/01/07 06:46:06;;;;;;;;;;;-0.50;99.90;;;;;;5076971;28;19964;-70
2022/01/07 06:48:33;;;;;;;;;;;-0.50;99.90;;;;;;5075666;28;19938;-70
2022/01/07 06:51:03;;;;;;;;;;;-0.50;99.90;;;;;;5079607;28;19978;-70
2022/01/07 06:53:30;;;;;;;;;;;-0.50;99.90;;;;;;5079903;28;20014;-70
2022/01/07 06:55:57;;;;;;;;;;;-0.50;99.90;;;;;;5078669;28;20007;-70
2022/01/07 06:58:24;;;;;;;;;;;-0.40;99.90;;;;;;5075767;28;20164;-70
2022/01/07 07:00:51;;;;;;;;;;;-0.40;99.90;;;;;;5075839;28;20378;-70
2022/01/07 07:03:18;;;;;;;;;;;-0.40;99.90;;;;;;5074431;28;19928;-69
2022/01/07 07:05:45;;;;;;;;;;;-0.40;99.90;;;;;;5080523;28;20003;-69
2022/01/07 07:08:11;;;;;;;;;;;-0.40;99.90;;;;;;5078623;28;19927;-70
2022/01/07 07:10:38;;;;;;;;;;;-0.40;99.90;;;;;;5075907;28;19919;-70
2022/01/07 07:13:04;;;;;;;;;;;-0.40;99.90;;;;;;5077007;28;19920;-70
2022/01/07 07:15:31;;;;;;;;;;;-0.40;99.90;;;;;;5080639;28;19960;-69
2022/01/07 07:17:58;;;;;;;;;;;-0.40;99.90;;;;;;5074525;28;19940;-70
2022/01/07 07:20:25;;;;;;;;;;;-0.40;99.90;;;;;;5077798;28;19924;-70
2022/01/07 07:22:51;;;;;;;;;;;-0.40;99.90;;;;;;5074594;28;19921;-69
2022/01/07 07:25:22;;;;;;;;;;;-0.40;99.90;;;;;;5078355;28;19924;-70
2022/01/07 07:27:50;;;;;;;;;;;-0.40;99.90;;;;;;5072679;28;20936;-70
2022/01/07 07:30:16;;;;;;;;;;;-0.40;99.90;;;;;;5071134;28;19927;-70
2022/01/07 07:32:43;;;;;;;;;;;-0.40;99.90;;;;;;5076957;28;19924;-70
2022/01/07 07:37:46;;;;;;;;;;;-0.40;99.90;;;;;;5081611;28;19966;-70
2022/01/07 07:40:13;;;;;;;;;;;-0.40;99.90;;;;;;5075424;28;19927;-70
2022/01/07 07:42:41;;;;;;;;;;;-0.40;99.90;;;;;;5088127;28;19923;-70
2022/01/07 07:45:09;;;;;;;;;;;-0.40;99.90;;;;;;5082463;28;19955;-70
2022/01/07 07:47:35;;;;;;;;;;;-0.40;99.90;;;;;;5084137;28;19920;-70
2022/01/07 07:50:02;;;;;;;;;;;-0.40;99.90;;;;;;5081345;28;19926;-70
2022/01/07 07:52:29;;;;;;;;;;;-0.40;99.90;;;;;;5097985;28;19959;-69
2022/01/07 07:54:56;;;;;;;;;;;-0.40;99.90;;;;;;5079097;28;19924;-69
2022/01/07 07:57:23;;;;;;;;;;;-0.40;99.90;;;;;;5070980;28;20438;-70
2022/01/07 07:59:49;;;;;;;;;;;-0.40;99.90;;;;;;5076329;28;20475;-69
2022/01/07 08:02:16;;;;;;;;;;;-0.40;99.90;;;;;;5077927;28;19921;-69
2022/01/07 08:04:43;;;;;;;;;;;-0.40;99.90;;;;;;5074837;28;19973;-69
2022/01/07 08:07:16;;;;;;;;;;;-0.40;99.90;;;;;;5071559;28;21971;-69
2022/01/07 08:09:43;;;;;;;;;;;-0.40;99.90;;;;;;5073896;28;19970;-69
2022/01/07 08:12:20;;;;;;;;;;;-0.40;99.90;;;;;;5084202;28;19925;-69
2022/01/07 08:17:32;;;;;;;;;;;-0.40;99.90;;;;;;5075618;28;19999;-69
2022/01/07 08:19:59;;;;;;;;;;;-0.40;99.90;;;;;;5081774;28;19930;-70
2022/01/07 08:22:26;;;;;;;;;;;-0.40;99.90;;;;;;5078804;28;19928;-69
2022/01/07 08:24:52;;;;;;;;;;;-0.40;99.90;;;;;;5078322;28;19935;-70
2022/01/07 08:27:20;;;;;;;;;;;-0.30;99.90;;;;;;5087553;28;20412;-69
2022/01/07 08:30:11;;;;;;;;;;;-0.30;99.90;;;;;;5077553;28;19924;-69
2022/01/07 08:35:23;;;;;;;;;;;-0.30;99.90;;;;;;5075902;28;19921;-69
2022/01/07 08:37:50;;;;;;;;;;;-0.30;99.90;;;;;;5083924;28;20006;-70
2022/01/07 08:40:16;;;;;;;;;;;-0.30;99.90;;;;;;5086162;28;19926;-70
2022/01/07 08:42:43;;;;;;;;;;;-0.30;99.90;;;;;;5071886;28;19926;-70
2022/01/07 08:45:10;;;;;;;;;;;-0.20;99.90;;;;;;5079434;28;19924;-70
2022/01/07 08:47:36;;;;;;;;;;;-0.20;99.90;;;;;;5079032;28;19927;-70
2022/01/07 08:50:04;;;;;;;;;;;-0.20;99.90;;;;;;5070211;28;19927;-70
2022/01/07 08:52:30;;;;;;;;;;;-0.20;99.90;;;;;;5093146;28;19923;-69
2022/01/07 08:54:57;;;;;;;;;;;-0.20;99.90;;;;;;5084007;28;19919;-69
2022/01/07 08:57:24;;;;;;;;;;;-0.20;99.90;;;;;;5066948;28;19931;-69
2022/01/07 08:59:51;;;;;;;;;;;-0.20;99.90;;;;;;5070165;28;20520;-69
2022/01/07 09:02:19;;;;;;;;;;;-0.20;99.90;;;;;;5074519;28;19979;-69
2022/01/07 09:04:46;;;;;;;;;;;-0.20;99.90;;;;;;5073878;28;19924;-70
2022/01/07 09:07:13;;;;;;;;;;;-0.20;99.90;;;;;;5072447;28;19930;-70
2022/01/07 09:09:40;;;;;;;;;;;-0.20;99.90;;;;;;5066444;28;19931;-70
2022/01/07 09:12:07;;;;;;;;;;;-0.30;99.90;;;;;;5066778;28;20028;-70
2022/01/07 09:14:34;;;;;;;;;;;-0.30;99.90;;;;;;5082016;28;20047;-69
2022/01/07 09:17:01;;;;;;;;;;;-0.30;99.90;;;;;;5074753;28;19924;-70
2022/01/07 09:19:28;;;;;;;;;;;-0.30;99.90;;;;;;5068933;28;19924;-70
2022/01/07 09:21:56;;;;;;;;;;;-0.30;99.90;;;;;;5075268;28;19924;-70
2022/01/07 09:24:23;;;;;;;;;;;-0.30;99.90;;;;;;5070439;28;20050;-70
2022/01/07 09:26:50;;;;;;;;;;;-0.30;99.90;;;;;;5076962;28;19928;-70
2022/01/07 09:29:17;;;;;;;;;;;-0.30;99.90;;;;;;5069404;28;19924;-70
2022/01/07 09:31:44;;;;;;;;;;;-0.30;99.90;;;;;;5068233;28;19928;-70
2022/01/07 09:34:11;;;;;;;;;;;-0.30;99.90;;;;;;5067508;28;20776;-71
2022/01/07 09:36:53;;;;;;;;;;;-0.40;99.90;;;;;;5067763;28;20279;-73
2022/01/07 09:39:19;;;;;;;;;;;-0.30;99.90;;;;;;5079028;28;19932;-72
2022/01/07 09:41:46;;;;;;;;;;;-0.30;99.90;;;;;;5080367;28;20546;-72
2022/01/07 09:44:13;;;;;;;;;;;-0.30;99.90;;;;;;5085820;28;19955;-74
2022/01/07 09:46:41;;;;;;;;;;;-0.30;99.90;;;;;;5083943;28;19919;-73
2022/01/07 09:49:08;;;;;;;;;;;-0.30;99.90;;;;;;5077931;28;21226;-74
2022/01/07 09:51:38;;;;;;;;;;;-0.30;99.90;;;;;;5082411;28;19979;-74
2022/01/07 09:54:05;;;;;;;;;;;-0.30;99.90;;;;;;5082463;28;19920;-74
2022/01/07 09:56:32;;;;;;;;;;;-0.30;99.90;;;;;;5091310;28;19927;-74
2022/01/07 09:59:00;;;;;;;;;;;-0.30;99.90;;;;;;5087048;28;19920;-75
2022/01/07 10:01:26;;;;;;;;;;;-0.20;99.90;;;;;;5084467;28;20286;-75
2022/01/07 10:03:54;;;;;;;;;;;-0.20;99.90;;;;;;5079419;28;19971;-74
2022/01/07 10:06:22;;;;;;;;;;;-0.20;99.90;;;;;;5086263;28;19928;-75
2022/01/07 10:08:59;;;;;;;;;;;-0.10;99.90;;;;;;5082223;28;19920;-74
2022/01/07 10:11:26;;;;;;;;;;;0.00;99.90;;;;;;5061454;28;20027;-74
2022/01/07 10:14:11;;;;;;;;;;;0.00;99.90;;;;;;5085891;28;19934;-74
2022/01/07 10:16:54;;;;;;;;;;;0.10;99.90;;;;;;5077364;28;20018;-74
2022/01/07 10:19:34;;;;;;;;;;;0.10;99.90;;;;;;5074565;28;19931;-74
2022/01/07 10:22:05;;;;;;;;;;;0.10;99.90;;;;;;5082195;28;19968;-74
2022/01/07 10:24:32;;;;;;;;;;;0.10;99.90;;;;;;5082663;28;19924;-73
2022/01/07 10:27:12;;;;;;;;;;;0.20;99.90;;;;;;5087678;28;20010;-74
2022/01/07 10:29:43;;;;;;;;;;;0.30;99.90;;;;;;5078085;28;20656;-73
2022/01/07 10:32:18;;;;;;;;;;;0.40;99.90;;;;;;5091533;28;19928;-73
2022/01/07 10:35:01;;;;;;;;;;;0.40;99.90;;;;;;5086383;28;20362;-74
2022/01/07 10:37:27;;;;;;;;;;;0.30;99.90;;;;;;5090248;28;20455;-72
2022/01/07 10:39:54;;;;;;;;;;;0.30;99.90;;;;;;5084233;28;19920;-72
2022/01/07 10:42:24;;;;;;;;;;;0.30;99.90;;;;;;5074658;28;20003;-72
2022/01/07 10:44:58;;;;;;;;;;;0.30;99.90;;;;;;5056539;28;19942;-72
2022/01/07 10:47:25;;;;;;;;;;;0.30;99.90;;;;;;5081307;28;19924;-72
2022/01/07 10:50:11;;;;;;;;;;;0.30;99.90;;;;;;5073682;28;19950;-72
2022/01/07 10:52:37;;;;;;;;;;;0.30;99.90;;;;;;5091689;28;19924;-71
2022/01/07 10:55:09;;;;;;;;;;;0.30;99.90;;;;;;5062236;28;20098;-71
2022/01/07 10:57:36;;;;;;;;;;;0.30;99.90;;;;;;5063683;28;19929;-72
2022/01/07 11:00:08;;;;;;;;;;;0.40;99.90;;;;;;5079165;28;19931;-72
2022/01/07 11:02:34;;;;;;;;;;;0.40;99.90;;;;;;5075955;28;19920;-72
2022/01/07 11:05:02;;;;;;;;;;;0.50;99.90;;;;;;5076739;28;19924;-70
2022/01/07 11:07:29;;;;;;;;;;;0.50;99.90;;;;;;5056771;28;20736;-70
2022/01/07 11:09:56;;;;;;;;;;;0.60;99.90;;;;;;5075059;28;20298;-71
2022/01/07 11:12:23;;;;;;;;;;;0.60;99.90;;;;;;5077138;28;19920;-71
2022/01/07 11:14:50;;;;;;;;;;;0.70;99.90;;;;;;5068973;28;19924;-72
2022/01/07 11:17:21;;;;;;;;;;;0.80;99.90;;;;;;5080479;28;19926;-72
2022/01/07 11:19:52;;;;;;;;;;;0.80;99.90;;;;;;5085816;28;19973;-72
2022/01/07 11:22:21;;;;;;;;;;;0.90;99.90;;;;;;5079581;28;19920;-74
2022/01/07 11:24:59;;;;;;;;;;;0.90;99.90;;;;;;5080869;28;20389;-74
2022/01/07 11:27:27;;;;;;;;;;;0.90;99.90;;;;;;5074872;28;19934;-73
2022/01/07 11:30:03;;;;;;;;;;;0.90;99.90;;;;;;5076570;28;19956;-74
2022/01/07 11:32:39;;;;;;;;;;;1.00;99.90;;;;;;5075015;28;19920;-74
2022/01/07 11:35:21;;;;;;;;;;;1.00;99.90;;;;;;5093264;28;19920;-74
2022/01/07 11:37:54;;;;;;;;;;;1.00;99.90;;;;;;5071945;28;19985;-73
2022/01/07 11:40:31;;;;;;;;;;;0.90;99.90;;;;;;5090164;28;19928;-74
2022/01/07 11:43:13;;;;;;;;;;;0.90;99.90;;;;;;5075310;28;19920;-75
2022/01/07 11:45:41;;;;;;;;;;;0.90;99.90;;;;;;5071639;28;19924;-73
2022/01/07 11:48:11;;;;;;;;;;;0.80;99.90;;;;;;5077521;28;19933;-75
2022/01/07 11:50:44;;;;;;;;;;;0.90;99.90;;;;;;5078228;28;20003;-74
2022/01/07 11:53:11;;;;;;;;;;;0.90;99.90;;;;;;5072494;28;19927;-75
2022/01/07 11:55:42;;;;;;;;;;;1.00;99.90;;;;;;5071887;28;19924;-74
2022/01/07 11:58:10;;;;;;;;;;;1.00;99.90;;;;;;5076167;28;19920;-75
2022/01/07 12:00:53;;;;;;;;;;;1.00;99.90;;;;;;5073699;28;19924;-74
2022/01/07 12:03:30;;;;;;;;;;;1.00;99.90;;;;;;5085067;28;20439;-74
2022/01/07 12:05:57;;;;;;;;;;;1.00;99.90;;;;;;5081599;28;19979;-74
2022/01/07 12:08:39;;;;;;;;;;;1.00;99.90;;;;;;5080045;28;19948;-74
2022/01/07 12:11:09;;;;;;;;;;;1.10;99.90;;;;;;5081470;28;19975;-74
2022/01/07 12:13:39;;;;;;;;;;;1.20;99.90;;;;;;5079315;28;19924;-74
2022/01/07 12:16:06;;;;;;;;;;;1.20;99.90;;;;;;5095903;28;19920;-74
2022/01/07 12:18:34;;;;;;;;;;;1.20;99.90;;;;;;5080195;28;19928;-75
2022/01/07 12:21:00;;;;;;;;;;;1.20;99.90;;;;;;5079966;28;19926;-75
2022/01/07 12:23:27;;;;;;;;;;;;;;;;;;5082304;28;19930;-75
2022/01/07 12:25:54;;;;;;;;;;;;;;;;;;5081861;28;20445;-74
2022/01/07 12:28:22;;;;;;;;;;;;;;;;;;5074692;28;20017;-75
2022/01/07 12:30:50;;;;;;;;;;;;;;;;;;5082174;28;19959;-75
2022/01/07 12:33:17;;;;;;;;;;;;;;;;;;5085797;28;19923;-74
2022/01/07 12:35:44;;;;;;;;;;;;;;;;;;5086976;28;20085;-74
2022/01/07 12:38:11;;;;;;;;;;;;;;;;;;5087029;28;19920;-76
2022/01/07 12:40:39;;;;;;;;;;;;;;;;;;5084470;28;20019;-76
2022/01/07 12:43:06;;;;;;;;;;;;;;;;;;5076312;28;20018;-74
2022/01/07 12:45:33;;;;;;;;;;;;;;;;;;5077952;28;19924;-77
2022/01/07 12:48:00;;;;;;;;;;;;;;;;;;5075325;28;19924;-74
2022/01/07 12:50:29;;;;;;;;;;;;;;;;;;5074295;28;19924;-74
2022/01/07 12:52:56;;;;;;;;;;;;;;;;;;5074513;28;20038;-77
2022/01/07 12:55:23;;;;;;;;;;;;;;;;;;5088306;28;19920;-74
2022/01/07 12:57:50;;;;;;;;;;;;;;;;;;5084880;28;19925;-70
2022/01/07 13:00:18;;;;;;;;;;;;;;;;;;5074509;28;20415;-72
2022/01/07 13:02:45;;;;;;;;;;;;;;;;;;5075779;28;20505;-74
2022/01/07 13:05:12;;;;;;;;;;;;;;;;;;5084239;28;19928;-77
2022/01/07 13:07:39;;;;;;;;;;;;;;;;;;5088983;28;20015;-76
2022/01/07 13:10:06;;;;;;;;;;;;;;;;;;5080690;28;20393;-72
2022/01/07 13:12:33;;;;;;;;;;;;;;;;;;5098366;28;20325;-78
2022/01/07 13:15:00;;;;;;;;;;;;;;;;;;5080320;28;19920;-76
2022/01/07 13:17:28;;;;;;;;;;;1.70;99.90;;;;;;5076410;28;19927;-77
2022/01/07 13:19:57;;;;;;;;;;;;;;;;;;5089791;28;20010;-78
2022/01/07 13:22:24;;;;;;;;;;;;;;;;;;5083152;28;19974;-79
2022/01/07 13:24:51;;;;;;;;;;;;;;;;;;5096874;28;20379;-77
2022/01/07 13:27:18;;;;;;;;;;;;;;;;;;5087394;28;19940;-81
2022/01/07 13:29:45;;;;;;;;;;;;;;;;;;5085655;28;19936;-78
2022/01/07 13:32:12;;;;;;;;;;;;;;;;;;5079666;28;20639;-78
2022/01/07 13:34:40;;;;;;;;;;;1.80;99.90;;;;;;5079218;28;19920;-77
2022/01/07 13:37:09;;;;;;;;;;;1.90;99.90;;;;;;5081836;28;19920;-80
2022/01/07 13:39:40;;;;;;;;;;;1.80;99.90;;;;;;5086525;28;19971;-80
2022/01/07 13:42:09;;;;;;;;;;;1.80;99.90;;;;;;5079292;28;19924;-80
2022/01/07 13:44:49;;;;;;;;;;;1.90;99.90;;;;;;5084445;28;20006;-80
2022/01/07 13:47:20;;;;;;;;;;;2.00;99.90;;;;;;5084138;28;19920;-79
2022/01/07 13:49:47;;;;;;;;;;;2.20;99.90;;;;;;5079106;28;20014;-80
2022/01/07 13:52:25;;;;;;;;;;;2.30;99.90;;;;;;5064159;28;20265;-80
2022/01/07 13:54:52;;;;;;;;;;;2.30;99.90;;;;;;5084093;28;20030;-79
2022/01/07 13:57:19;;;;;;;;;;;2.30;99.90;;;;;;5086555;28;20007;-79
2022/01/07 13:59:46;;;;;;;;;;;2.20;99.90;;;;;;5078965;28;19924;-79
2022/01/07 14:02:16;;;;;;;;;;;2.10;99.90;;;;;;5076616;28;19931;-79
2022/01/07 14:04:55;;;;;;;;;;;2.10;99.90;;;;;;5076251;28;20390;-79
2022/01/07 14:07:24;;;;;;;;;;;2.10;99.90;;;;;;5080177;28;19960;-79
2022/01/07 14:10:10;;;;;;;;;;;1.90;99.90;;;;;;5081373;28;19920;-78
2022/01/07 14:12:38;;;;;;;;;;;1.90;99.90;;;;;;5077541;28;20382;-79
2022/01/07 14:15:09;;;;;;;;;;;1.90;99.90;;;;;;5078985;28;20330;-81
2022/01/07 14:17:36;;;;;;;;;;;2.00;99.90;;;;;;5080156;28;19920;-79
2022/01/07 14:20:11;;;;;;;;;;;2.10;99.90;;;;;;5083822;28;20014;-79
2022/01/07 14:22:56;;;;;;;;;;;2.10;99.90;;;;;;5088198;28;20010;-81
2022/01/07 14:25:23;;;;;;;;;;;2.10;99.90;;;;;;5087988;28;20014;-80
2022/01/07 14:27:50;;;;;;;;;;;2.10;99.90;;;;;;5076435;28;20414;-80
2022/01/07 14:30:17;;;;;;;;;;;2.00;99.90;;;;;;5080153;28;20386;-80
2022/01/07 14:32:44;;;;;;;;;;;2.00;99.90;;;;;;5080091;28;19979;-80
2022/01/07 14:35:12;;;;;;;;;;;2.00;99.90;;;;;;5098729;28;19920;-80
2022/01/07 14:37:38;;;;;;;;;;;2.00;99.90;;;;;;5088381;28;20006;-81
2022/01/07 14:40:07;;;;;;;;;;;2.00;99.90;;;;;;5090773;28;20006;-80
2022/01/07 14:42:34;;;;;;;;;;;2.00;99.90;;;;;;5086629;28;19927;-81
2022/01/07 14:45:01;;;;;;;;;;;2.00;99.90;;;;;;5078889;28;19943;-80